createdAt,value
2019-04-13T00:00:06.100Z,0
2019-04-13T00:00:46.491Z,0
2019-04-13T00:01:26.908Z,0
2019-04-13T00:02:07.328Z,0
2019-04-13T00:02:47.709Z,0
2019-04-13T00:03:28.101Z,0
2019-04-13T00:04:08.537Z,0
2019-04-13T00:04:48.920Z,0
2019-04-13T00:05:29.334Z,0
2019-04-13T00:06:09.737Z,0
2019-04-13T00:06:50.146Z,0
2019-04-13T00:07:30.697Z,0
2019-04-13T00:08:10.945Z,0
2019-04-13T00:08:51.341Z,0
2019-04-13T00:09:31.705Z,0
2019-04-13T00:10:12.115Z,0
2019-04-13T00:10:52.491Z,0
2019-04-13T00:11:32.900Z,0
2019-04-13T00:12:13.318Z,0
2019-04-13T00:12:53.729Z,0
2019-04-13T00:13:34.152Z,0
2019-04-13T00:14:14.589Z,0
2019-04-13T00:14:55.003Z,0
2019-04-13T00:15:35.399Z,0
2019-04-13T00:16:15.806Z,0
2019-04-13T00:16:56.211Z,0
2019-04-13T00:17:36.627Z,0
2019-04-13T00:18:17.061Z,0
2019-04-13T00:18:57.482Z,0
2019-04-13T00:19:37.877Z,0
2019-04-13T00:20:18.298Z,0
2019-04-13T00:20:58.712Z,0
2019-04-13T00:21:39.125Z,0
2019-04-13T00:22:19.547Z,0
2019-04-13T00:22:59.970Z,0
2019-04-13T00:23:40.389Z,0
2019-04-13T00:24:20.818Z,0
2019-04-13T00:25:01.249Z,0
2019-04-13T00:25:41.660Z,0
2019-04-13T00:26:22.056Z,0
2019-04-13T00:27:02.517Z,0
2019-04-13T00:27:42.891Z,0
2019-04-13T00:28:23.325Z,0
2019-04-13T00:29:03.738Z,0
2019-04-13T00:29:44.151Z,0
2019-04-13T00:30:24.569Z,0
2019-04-13T00:31:04.987Z,0
2019-04-13T00:31:45.377Z,0
2019-04-13T00:32:25.801Z,0
2019-04-13T00:33:06.226Z,0
2019-04-13T00:33:46.610Z,0
2019-04-13T00:34:27.018Z,0
2019-04-13T00:35:07.442Z,0
2019-04-13T00:35:47.849Z,0
2019-04-13T00:36:28.263Z,0
2019-04-13T00:37:08.698Z,0
2019-04-13T00:37:49.111Z,0
2019-04-13T00:38:29.534Z,0
2019-04-13T00:39:09.957Z,0
2019-04-13T00:39:50.340Z,0
2019-04-13T00:40:30.738Z,0
2019-04-13T00:41:11.139Z,0
2019-04-13T00:41:51.542Z,0
2019-04-13T00:42:31.962Z,0
2019-04-13T00:45:05.493Z,0
2019-04-13T00:45:45.883Z,0
2019-04-13T00:46:26.561Z,0
2019-04-13T00:47:06.770Z,0
2019-04-13T00:47:47.160Z,0
2019-04-13T00:48:27.559Z,0
2019-04-13T00:49:07.959Z,0
2019-04-13T00:49:48.351Z,0
2019-04-13T00:50:28.777Z,0
2019-04-13T00:51:09.167Z,0
2019-04-13T00:51:49.557Z,0
2019-04-13T00:52:29.919Z,0
2019-04-13T00:53:10.301Z,0
2019-04-13T00:53:50.682Z,0
2019-04-13T00:54:31.070Z,0
2019-04-13T00:55:11.461Z,0
2019-04-13T00:55:51.845Z,0
2019-04-13T00:56:32.228Z,0
2019-04-13T00:57:12.664Z,0
2019-04-13T00:57:53.122Z,0
2019-04-13T00:58:33.432Z,0
2019-04-13T00:59:13.786Z,0
2019-04-13T00:59:54.162Z,0
2019-04-13T01:00:34.580Z,0
2019-04-13T01:01:15.002Z,0
2019-04-13T01:01:55.423Z,0
2019-04-13T01:02:35.851Z,0
2019-04-13T01:03:16.273Z,0
2019-04-13T01:03:56.712Z,0
2019-04-13T01:04:37.125Z,0
2019-04-13T01:05:17.586Z,0
2019-04-13T01:05:57.956Z,0
2019-04-13T01:06:38.370Z,0
2019-04-13T01:07:18.752Z,0
2019-04-13T01:07:59.142Z,0
2019-04-13T01:08:39.531Z,0
2019-04-13T01:09:19.952Z,0
2019-04-13T01:10:00.487Z,0
2019-04-13T01:10:40.895Z,0
2019-04-13T01:11:21.307Z,0
2019-04-13T01:12:01.721Z,0
2019-04-13T01:12:42.133Z,0
2019-04-13T01:13:22.564Z,0
2019-04-13T01:14:03.616Z,0
2019-04-13T01:14:44.023Z,0
2019-04-13T01:15:24.401Z,0
2019-04-13T01:16:04.784Z,0
2019-04-13T01:16:45.198Z,0
2019-04-13T01:17:25.584Z,0
2019-04-13T01:18:06.003Z,0
2019-04-13T01:18:47.351Z,0
2019-04-13T01:19:27.745Z,0
2019-04-13T01:20:08.155Z,0
2019-04-13T01:20:48.562Z,0
2019-04-13T01:21:28.983Z,0
2019-04-13T01:22:09.413Z,0
2019-04-13T01:22:49.814Z,0
2019-04-13T01:23:30.252Z,0
2019-04-13T01:24:10.657Z,0
2019-04-13T01:24:51.096Z,0
2019-04-13T01:25:31.460Z,0
2019-04-13T01:26:11.861Z,0
2019-04-13T01:26:52.258Z,0
2019-04-13T01:27:32.660Z,0
2019-04-13T01:28:13.035Z,0
2019-04-13T01:28:53.438Z,0
2019-04-13T01:29:33.839Z,0
2019-04-13T01:30:14.251Z,0
2019-04-13T01:30:54.681Z,0
2019-04-13T01:31:35.099Z,0
2019-04-13T01:32:15.551Z,0
2019-04-13T01:32:55.954Z,0
2019-04-13T01:33:36.413Z,0
2019-04-13T01:34:16.797Z,0
2019-04-13T01:35:05.580Z,0
2019-04-13T01:35:37.643Z,0
2019-04-13T01:36:18.021Z,0
2019-04-13T01:36:58.431Z,0
2019-04-13T01:37:38.856Z,0
2019-04-13T01:38:19.285Z,0
2019-04-13T01:38:59.707Z,0
2019-04-13T01:39:40.153Z,0
2019-04-13T01:40:20.564Z,0
2019-04-13T01:41:00.979Z,0
2019-04-13T01:41:41.374Z,0
2019-04-13T01:42:21.793Z,0
2019-04-13T01:43:02.211Z,0
2019-04-13T01:43:42.629Z,0
2019-04-13T01:44:23.040Z,0
2019-04-13T01:45:03.476Z,0
2019-04-13T01:45:44.079Z,0
2019-04-13T01:46:24.506Z,0
2019-04-13T01:47:04.911Z,0
2019-04-13T01:47:45.334Z,0
2019-04-13T01:48:25.753Z,0
2019-04-13T01:49:06.160Z,0
2019-04-13T01:49:46.598Z,0
2019-04-13T01:50:27.020Z,0
2019-04-13T01:51:07.429Z,0
2019-04-13T01:51:47.845Z,0
2019-04-13T01:52:28.285Z,0
2019-04-13T01:53:08.732Z,0
2019-04-13T01:53:49.135Z,0
2019-04-13T01:54:29.573Z,0
2019-04-13T01:55:09.999Z,0
2019-04-13T01:55:50.430Z,0
2019-04-13T01:56:30.852Z,0
2019-04-13T01:57:11.271Z,0
2019-04-13T01:57:51.674Z,0
2019-04-13T01:58:32.093Z,0
2019-04-13T01:59:12.522Z,0
2019-04-13T01:59:52.939Z,0
2019-04-13T02:00:33.358Z,0
2019-04-13T02:03:01.388Z,0
2019-04-13T02:03:41.774Z,0
2019-04-13T02:04:22.169Z,0
2019-04-13T02:05:02.579Z,0
2019-04-13T02:05:42.992Z,0
2019-04-13T02:06:23.388Z,0
2019-04-13T02:07:03.802Z,0
2019-04-13T02:07:44.217Z,0
2019-04-13T02:08:24.652Z,0
2019-04-13T02:09:05.061Z,0
2019-04-13T02:09:45.486Z,0
2019-04-13T02:10:25.910Z,0
2019-04-13T02:11:06.322Z,0
2019-04-13T02:11:46.751Z,0
2019-04-13T02:12:27.186Z,0
2019-04-13T02:13:07.605Z,0
2019-04-13T02:13:48.015Z,0
2019-04-13T02:14:28.445Z,0
2019-04-13T02:15:08.854Z,0
2019-04-13T02:15:49.279Z,0
2019-04-13T02:16:29.706Z,0
2019-04-13T02:17:10.112Z,0
2019-04-13T02:17:50.537Z,0
2019-04-13T02:18:30.943Z,0
2019-04-13T02:19:11.366Z,0
2019-04-13T02:19:51.796Z,0
2019-04-13T02:20:32.236Z,0
2019-04-13T02:21:12.642Z,0
2019-04-13T02:21:53.040Z,0
2019-04-13T02:22:33.458Z,0
2019-04-13T02:23:13.863Z,0
2019-04-13T02:23:54.273Z,0
2019-04-13T02:24:34.705Z,0
2019-04-13T02:25:15.118Z,0
2019-04-13T02:25:55.542Z,0
2019-04-13T02:26:35.958Z,0
2019-04-13T02:27:16.381Z,0
2019-04-13T02:27:56.807Z,0
2019-04-13T02:28:37.226Z,0
2019-04-13T02:29:17.653Z,0
2019-04-13T02:29:58.079Z,0
2019-04-13T02:30:38.492Z,0
2019-04-13T02:31:18.909Z,0
2019-04-13T02:31:59.322Z,0
2019-04-13T02:32:39.734Z,0
2019-04-13T02:33:21.828Z,0
2019-04-13T02:34:00.607Z,0
2019-04-13T02:34:41.016Z,0
2019-04-13T02:35:34.274Z,0
2019-04-13T02:36:01.909Z,0
2019-04-13T02:36:42.317Z,0
2019-04-13T02:37:22.754Z,0
2019-04-13T02:38:03.156Z,0
2019-04-13T02:38:43.565Z,0
2019-04-13T02:39:23.980Z,0
2019-04-13T02:40:04.399Z,0
2019-04-13T02:40:44.821Z,0
2019-04-13T02:41:25.246Z,0
2019-04-13T02:42:05.660Z,0
2019-04-13T02:42:46.089Z,0
2019-04-13T02:43:26.496Z,0
2019-04-13T02:44:06.905Z,0
2019-04-13T02:44:47.325Z,0
2019-04-13T02:45:27.741Z,0
2019-04-13T02:46:08.156Z,0
2019-04-13T02:46:48.584Z,0
2019-04-13T02:47:29.011Z,0
2019-04-13T02:48:09.429Z,0
2019-04-13T02:48:49.849Z,0
2019-04-13T02:49:30.263Z,0
2019-04-13T02:50:10.670Z,0
2019-04-13T02:50:51.075Z,0
2019-04-13T02:51:31.515Z,0
2019-04-13T02:52:11.943Z,0
2019-04-13T02:52:52.370Z,0
2019-04-13T02:53:32.780Z,0
2019-04-13T02:54:13.218Z,0
2019-04-13T02:54:53.631Z,0
2019-04-13T02:55:34.061Z,0
2019-04-13T02:56:14.473Z,0
2019-04-13T02:56:54.864Z,0
2019-04-13T02:57:35.291Z,0
2019-04-13T02:58:15.704Z,0
2019-04-13T02:58:56.132Z,0
2019-04-13T02:59:36.567Z,0
2019-04-13T03:00:16.987Z,0
2019-04-13T03:00:57.395Z,0
2019-04-13T03:01:37.826Z,0
2019-04-13T03:02:18.243Z,0
2019-04-13T03:02:58.662Z,0
2019-04-13T03:03:39.091Z,0
2019-04-13T03:04:19.513Z,0
2019-04-13T03:04:59.930Z,0
2019-04-13T03:05:46.647Z,0
2019-04-13T03:06:20.781Z,0
2019-04-13T03:07:01.206Z,0
2019-04-13T03:07:41.658Z,0
2019-04-13T03:08:22.055Z,0
2019-04-13T03:09:02.441Z,0
2019-04-13T03:09:42.819Z,0
2019-04-13T03:10:23.187Z,0
2019-04-13T03:11:03.609Z,0
2019-04-13T03:11:44.034Z,0
2019-04-13T03:12:24.443Z,0
2019-04-13T03:13:04.862Z,0
2019-04-13T03:13:45.290Z,0
2019-04-13T03:14:25.709Z,0
2019-04-13T03:15:06.133Z,0
2019-04-13T03:15:46.563Z,0
2019-04-13T03:16:26.977Z,0
2019-04-13T03:17:07.371Z,0
2019-04-13T03:17:47.794Z,0
2019-04-13T03:18:28.213Z,0
2019-04-13T03:19:08.630Z,0
2019-04-13T03:19:49.046Z,0
2019-04-13T03:20:29.465Z,0
2019-04-13T03:21:09.869Z,0
2019-04-13T03:21:50.298Z,0
2019-04-13T03:22:30.717Z,0
2019-04-13T03:23:11.141Z,0
2019-04-13T03:23:51.565Z,0
2019-04-13T03:24:31.988Z,0
2019-04-13T03:25:12.370Z,0
2019-04-13T03:25:52.816Z,0
2019-04-13T03:26:33.245Z,0
2019-04-13T03:27:13.671Z,0
2019-04-13T03:27:54.082Z,0
2019-04-13T03:28:34.606Z,0
2019-04-13T03:29:15.020Z,0
2019-04-13T03:29:55.452Z,0
2019-04-13T03:30:35.890Z,0
2019-04-13T03:31:16.310Z,0
2019-04-13T03:31:56.733Z,0
2019-04-13T03:32:37.185Z,0
2019-04-13T03:33:17.562Z,0
2019-04-13T03:33:57.981Z,0
2019-04-13T03:34:38.405Z,0
2019-04-13T03:35:18.834Z,0
2019-04-13T03:35:59.789Z,0
2019-04-13T03:36:39.681Z,0
2019-04-13T03:37:20.095Z,0
2019-04-13T03:38:00.515Z,0
2019-04-13T03:38:40.937Z,0
2019-04-13T03:39:21.357Z,0
2019-04-13T03:40:01.778Z,0
2019-04-13T03:40:42.201Z,0
2019-04-13T03:41:22.625Z,0
2019-04-13T03:42:03.051Z,0
2019-04-13T03:42:43.483Z,0
2019-04-13T03:43:23.905Z,0
2019-04-13T03:44:04.335Z,0
2019-04-13T03:44:44.750Z,0
2019-04-13T03:45:25.192Z,0
2019-04-13T03:46:05.603Z,0
2019-04-13T03:46:46.010Z,0
2019-04-13T03:47:26.426Z,0
2019-04-13T03:48:06.852Z,0
2019-04-13T03:48:47.276Z,0
2019-04-13T03:49:27.696Z,0
2019-04-13T03:50:08.127Z,0
2019-04-13T03:50:48.583Z,0
2019-04-13T03:51:28.978Z,0
2019-04-13T03:52:09.417Z,0
2019-04-13T03:52:49.825Z,0
2019-04-13T03:53:30.253Z,0
2019-04-13T03:54:10.676Z,0
2019-04-13T03:54:51.109Z,0
2019-04-13T03:55:31.521Z,0
2019-04-13T03:56:11.948Z,0
2019-04-13T03:56:52.372Z,0
2019-04-13T03:57:32.798Z,0
2019-04-13T03:58:13.212Z,0
2019-04-13T03:58:53.637Z,0
2019-04-13T03:59:34.051Z,0
2019-04-13T04:00:14.473Z,0
2019-04-13T04:00:54.915Z,0
2019-04-13T04:01:35.307Z,0
2019-04-13T04:02:15.725Z,0
2019-04-13T04:02:56.136Z,0
2019-04-13T04:03:36.561Z,0
2019-04-13T04:04:16.973Z,0
2019-04-13T04:04:57.392Z,0
2019-04-13T04:05:37.815Z,0
2019-04-13T04:06:18.235Z,0
2019-04-13T04:06:58.654Z,0
2019-04-13T04:07:39.083Z,0
2019-04-13T04:08:19.505Z,0
2019-04-13T04:08:59.940Z,0
2019-04-13T04:09:40.372Z,0
2019-04-13T04:10:20.796Z,0
2019-04-13T04:11:01.215Z,0
2019-04-13T04:11:41.646Z,0
2019-04-13T04:12:22.066Z,0
2019-04-13T04:13:02.452Z,0
2019-04-13T04:13:42.886Z,0
2019-04-13T04:14:23.307Z,0
2019-04-13T04:15:03.709Z,0
2019-04-13T04:15:44.125Z,4
2019-04-13T04:16:24.537Z,4
2019-04-13T04:17:04.967Z,0
2019-04-13T04:17:45.377Z,0
2019-04-13T04:18:25.794Z,0
2019-04-13T04:19:06.218Z,4
2019-04-13T04:19:46.606Z,4
2019-04-13T04:20:27.007Z,0
2019-04-13T04:21:07.420Z,4
2019-04-13T04:21:47.864Z,4
2019-04-13T04:22:28.272Z,0
2019-04-13T04:23:08.710Z,4
2019-04-13T04:23:49.140Z,4
2019-04-13T04:24:29.550Z,4
2019-04-13T04:25:09.990Z,4
2019-04-13T04:25:50.405Z,4
2019-04-13T04:26:30.843Z,8
2019-04-13T04:27:11.264Z,4
2019-04-13T04:27:51.692Z,8
2019-04-13T05:07:07.084Z,180
2019-04-13T05:07:47.434Z,180
2019-04-13T05:08:27.842Z,184
2019-04-13T05:09:08.261Z,184
2019-04-13T05:09:48.681Z,188
2019-04-13T05:10:29.095Z,188
2019-04-13T05:11:09.504Z,188
2019-04-13T05:11:49.925Z,188
2019-04-13T05:12:30.325Z,192
2019-04-13T05:13:10.734Z,196
2019-04-13T05:13:51.156Z,208
2019-04-13T05:14:31.576Z,216
2019-04-13T05:15:12.007Z,224
2019-04-13T05:15:52.446Z,240
2019-04-13T05:16:32.818Z,252
2019-04-13T05:17:13.225Z,260
2019-04-13T05:17:53.609Z,272
2019-04-13T05:18:33.982Z,284
2019-04-13T05:19:14.567Z,296
2019-04-13T05:19:54.983Z,312
2019-04-13T05:20:35.377Z,324
2019-04-13T05:21:15.788Z,344
2019-04-13T05:21:56.214Z,360
2019-04-13T05:22:36.602Z,372
2019-04-13T05:23:16.993Z,388
2019-04-13T05:23:57.408Z,400
2019-04-13T05:24:37.825Z,412
2019-04-13T05:25:18.252Z,416
2019-04-13T05:25:58.679Z,420
2019-04-13T05:26:39.107Z,424
2019-04-13T05:27:19.648Z,424
2019-04-13T05:28:00.042Z,444
2019-04-13T05:28:40.436Z,468
2019-04-13T05:29:20.803Z,492
2019-04-13T05:30:01.228Z,520
2019-04-13T05:30:41.615Z,548
2019-04-13T05:31:22.016Z,560
2019-04-13T05:32:02.427Z,576
2019-04-13T05:32:42.835Z,588
2019-04-13T05:33:23.262Z,612
2019-04-13T05:34:03.690Z,644
2019-04-13T05:34:44.109Z,676
2019-04-13T05:35:24.537Z,712
2019-04-13T05:36:04.965Z,744
2019-04-13T05:36:47.720Z,760
2019-04-13T05:37:25.828Z,776
2019-04-13T05:38:06.246Z,796
2019-04-13T05:38:46.672Z,816
2019-04-13T05:39:29.112Z,824
2019-04-13T05:40:07.519Z,836
2019-04-13T05:40:47.935Z,848
2019-04-13T05:41:30.447Z,868
2019-04-13T05:42:10.628Z,892
2019-04-13T05:42:50.986Z,928
2019-04-13T05:43:31.416Z,964
2019-04-13T05:44:11.783Z,992
2019-04-13T05:44:52.221Z,1012
2019-04-13T05:45:32.641Z,1012
2019-04-13T05:46:13.059Z,996
2019-04-13T05:46:53.461Z,1012
2019-04-13T05:47:33.856Z,1052
2019-04-13T05:48:14.262Z,1088
2019-04-13T05:48:54.701Z,1132
2019-04-13T05:49:35.122Z,1192
2019-04-13T05:50:15.546Z,1256
2019-04-13T05:50:56.018Z,1300
2019-04-13T05:51:36.404Z,1372
2019-04-13T05:52:16.837Z,1432
2019-04-13T05:52:57.247Z,1508
2019-04-13T05:53:37.673Z,1560
2019-04-13T05:54:18.125Z,1612
2019-04-13T05:54:58.489Z,1692
2019-04-13T05:55:38.886Z,1744
2019-04-13T05:56:19.276Z,1784
2019-04-13T05:56:59.684Z,1988
2019-04-13T05:57:40.087Z,1884
2019-04-13T06:00:07.856Z,2004
2019-04-13T06:00:48.222Z,2040
2019-04-13T06:01:28.620Z,2100
2019-04-13T06:02:09.040Z,2172
2019-04-13T06:02:51.155Z,2276
2019-04-13T06:03:31.567Z,2564
2019-04-13T06:04:11.981Z,3260
2019-04-13T06:04:52.482Z,4404
2019-04-13T06:05:32.806Z,4968
2019-04-13T06:06:13.391Z,3936
2019-04-13T06:06:59.747Z,3468
2019-04-13T06:07:34.122Z,4080
2019-04-13T06:08:14.544Z,5096
2019-04-13T06:08:54.921Z,6548
2019-04-13T06:09:35.304Z,7188
2019-04-13T06:10:15.719Z,7320
2019-04-13T06:10:56.093Z,6740
2019-04-13T06:11:36.499Z,6008
2019-04-13T06:12:16.887Z,6688
2019-04-13T06:12:57.296Z,7824
2019-04-13T06:13:37.788Z,8480
2019-04-13T06:14:18.083Z,8848
2019-04-13T06:14:59.591Z,10432
2019-04-13T06:15:38.871Z,10912
2019-04-13T06:16:19.310Z,11520
2019-04-13T06:16:59.692Z,11904
2019-04-13T06:17:40.136Z,12448
2019-04-13T06:18:21.480Z,12544
2019-04-13T06:19:01.055Z,11936
2019-04-13T06:19:41.523Z,10784
2019-04-13T06:20:21.932Z,10880
2019-04-13T06:21:04.410Z,9980
2019-04-13T06:21:44.743Z,10176
2019-04-13T06:22:23.102Z,9780
2019-04-13T06:23:03.517Z,9560
2019-04-13T06:23:43.878Z,9356
2019-04-13T06:24:24.287Z,9420
2019-04-13T06:25:09.069Z,9328
2019-04-13T06:25:45.625Z,9504
2019-04-13T06:26:25.565Z,8980
2019-04-13T06:27:05.869Z,8768
2019-04-13T06:27:46.308Z,8672
2019-04-13T06:28:26.676Z,8752
2019-04-13T06:29:07.034Z,8680
2019-04-13T06:29:47.462Z,8704
2019-04-13T06:30:27.875Z,8704
2019-04-13T06:31:08.283Z,8728
2019-04-13T06:31:49.915Z,8000
2019-04-13T06:32:30.305Z,7096
2019-04-13T06:33:10.751Z,6432
2019-04-13T06:33:51.121Z,6928
2019-04-13T06:34:31.539Z,8432
2019-04-13T06:35:11.915Z,8596
2019-04-13T06:35:52.429Z,8556
2019-04-13T06:36:32.834Z,8812
2019-04-13T06:37:13.237Z,8964
2019-04-13T06:37:55.355Z,9144
2019-04-13T06:38:34.000Z,9452
2019-04-13T06:39:15.672Z,9444
2019-04-13T06:39:54.767Z,9232
2019-04-13T06:40:35.185Z,9508
2019-04-13T06:41:15.606Z,9712
2019-04-13T06:41:56.963Z,9748
2019-04-13T06:42:37.356Z,9860
2019-04-13T06:43:21.568Z,9892
2019-04-13T06:44:02.036Z,9940
2019-04-13T06:44:42.351Z,9588
2019-04-13T06:45:22.782Z,9780
2019-04-13T06:46:03.248Z,9996
2019-04-13T06:46:43.639Z,9896
2019-04-13T06:47:24.076Z,9764
2019-04-13T06:48:06.323Z,9888
2019-04-13T06:48:44.877Z,9944
2019-04-13T06:49:26.222Z,9936
2019-04-13T06:50:06.764Z,8512
2019-04-13T06:50:47.204Z,10108
2019-04-13T06:51:27.577Z,10720
2019-04-13T06:52:07.999Z,10932
2019-04-13T06:52:48.389Z,10980
2019-04-13T06:53:28.828Z,10856
2019-04-13T06:54:09.676Z,9944
2019-04-13T06:54:49.638Z,9084
2019-04-13T06:55:30.053Z,8652
2019-04-13T06:56:10.430Z,8684
2019-04-13T06:56:51.099Z,8844
2019-04-13T06:57:31.289Z,8548
2019-04-13T06:58:13.164Z,8516
2019-04-13T06:58:52.282Z,8644
2019-04-13T06:59:32.825Z,8156
2019-04-13T07:00:15.479Z,6372
2019-04-13T07:00:53.488Z,6448
2019-04-13T07:01:33.850Z,7600
2019-04-13T07:02:14.255Z,5704
2019-04-13T07:02:55.088Z,6376
2019-04-13T07:03:35.517Z,5580
2019-04-13T07:04:15.910Z,8092
2019-04-13T07:04:56.492Z,7668
2019-04-13T07:05:36.746Z,8744
2019-04-13T07:06:17.159Z,8308
2019-04-13T07:06:58.524Z,7716
2019-04-13T07:07:45.391Z,5536
2019-04-13T07:08:21.921Z,5344
2019-04-13T07:09:01.447Z,4928
2019-04-13T07:09:40.796Z,5536
2019-04-13T07:10:30.059Z,8484
2019-04-13T07:11:01.044Z,8920
2019-04-13T07:11:41.458Z,8900
2019-04-13T07:12:21.844Z,8864
2019-04-13T07:13:02.250Z,6340
2019-04-13T07:13:42.659Z,8316
2019-04-13T07:14:23.103Z,8596
2019-04-13T07:15:03.501Z,8284
2019-04-13T07:15:46.383Z,7872
2019-04-13T07:16:24.321Z,6568
2019-04-13T07:17:04.687Z,7672
2019-04-13T07:17:45.075Z,7320
2019-04-13T07:18:25.484Z,7380
2019-04-13T07:19:06.933Z,8028
2019-04-13T07:19:46.475Z,8332
2019-04-13T07:20:26.864Z,8300
2019-04-13T07:21:07.221Z,7816
2019-04-13T07:21:50.632Z,8468
2019-04-13T07:22:28.061Z,6604
2019-04-13T07:23:08.494Z,6832
2019-04-13T07:23:48.900Z,7712
2019-04-13T07:24:29.554Z,6868
2019-04-13T07:25:10.670Z,5720
2019-04-13T07:27:38.191Z,7680
2019-04-13T07:28:18.881Z,6076
2019-04-13T07:29:00.915Z,7752
2019-04-13T07:29:41.318Z,7472
2019-04-13T07:30:21.725Z,6992
2019-04-13T07:31:02.152Z,6988
2019-04-13T07:31:42.564Z,6148
2019-04-13T07:32:23.003Z,5528
2019-04-13T07:33:03.427Z,4420
2019-04-13T07:33:43.819Z,2812
2019-04-13T07:34:24.267Z,2504
2019-04-13T07:35:05.339Z,2660
2019-04-13T07:35:45.076Z,3004
2019-04-13T07:36:25.589Z,2944
2019-04-13T07:37:06.036Z,2808
2019-04-13T07:37:46.457Z,2888
2019-04-13T07:38:26.834Z,3224
2019-04-13T07:39:07.240Z,2828
2019-04-13T07:39:48.256Z,3212
2019-04-13T07:40:28.130Z,4164
2019-04-13T07:41:08.545Z,4344
2019-04-13T07:41:48.971Z,3488
2019-04-13T07:42:29.366Z,3292
2019-04-13T07:43:10.865Z,3996
2019-04-13T07:43:50.210Z,3596
2019-04-13T07:44:30.620Z,2704
2019-04-13T07:45:11.034Z,2728
2019-04-13T07:45:53.504Z,3240
2019-04-13T07:46:31.912Z,3572
2019-04-13T07:47:16.605Z,3472
2019-04-13T07:47:52.664Z,2232
2019-04-13T07:48:33.050Z,2332
2019-04-13T07:49:14.456Z,1612
2019-04-13T07:49:54.846Z,1524
2019-04-13T07:50:36.674Z,1544
2019-04-13T07:51:14.636Z,1436
2019-04-13T07:51:55.034Z,1340
2019-04-13T07:52:35.485Z,1508
2019-04-13T07:53:15.823Z,1184
2019-04-13T07:53:57.157Z,1292
2019-04-13T07:54:37.614Z,1012
2019-04-13T07:55:19.140Z,1040
2019-04-13T07:55:58.548Z,1080
2019-04-13T07:56:38.720Z,1284
2019-04-13T07:57:19.112Z,1352
2019-04-13T07:57:59.549Z,1484
2019-04-13T07:58:39.927Z,1656
2019-04-13T07:59:20.314Z,2060
2019-04-13T08:00:00.833Z,1824
2019-04-13T08:00:41.303Z,1664
2019-04-13T08:01:23.403Z,1568
2019-04-13T08:02:02.119Z,1604
2019-04-13T08:02:42.530Z,1664
2019-04-13T08:03:22.969Z,1736
2019-04-13T08:04:03.295Z,1820
2019-04-13T08:04:43.719Z,1836
2019-04-13T08:05:24.167Z,1884
2019-04-13T08:06:04.547Z,1796
2019-04-13T08:06:44.953Z,1644
2019-04-13T08:07:25.362Z,1664
2019-04-13T08:09:58.331Z,2632
2019-04-13T08:10:38.690Z,2772
2019-04-13T08:11:20.056Z,2448
2019-04-13T08:12:02.205Z,2236
2019-04-13T08:12:42.636Z,2048
2019-04-13T08:13:23.191Z,1984
2019-04-13T08:14:03.754Z,2044
2019-04-13T08:14:43.834Z,2216
2019-04-13T08:15:24.323Z,2452
2019-04-13T08:16:04.847Z,2596
2019-04-13T08:16:45.282Z,2692
2019-04-13T08:17:25.639Z,2688
2019-04-13T08:18:08.613Z,2672
2019-04-13T08:18:46.429Z,2692
2019-04-13T08:19:26.808Z,2708
2019-04-13T08:20:07.219Z,2612
2019-04-13T08:20:47.623Z,2532
2019-04-13T08:21:33.037Z,2448
2019-04-13T08:22:09.471Z,2316
2019-04-13T08:22:50.017Z,2020
2019-04-13T08:23:30.326Z,1804
2019-04-13T08:24:10.736Z,1524
2019-04-13T08:24:51.206Z,1440
2019-04-13T08:25:31.968Z,1412
2019-04-13T08:26:12.472Z,1412
2019-04-13T08:26:52.759Z,1416
2019-04-13T08:27:33.610Z,1372
2019-04-13T08:28:15.615Z,1308
2019-04-13T08:28:53.908Z,1264
2019-04-13T08:29:34.302Z,1248
2019-04-13T08:30:16.368Z,1288
2019-04-13T08:30:55.093Z,1384
2019-04-13T08:31:35.507Z,1356
2019-04-13T08:32:17.709Z,1240
2019-04-13T08:33:00.901Z,1268
2019-04-13T08:33:38.593Z,1372
2019-04-13T08:34:18.977Z,1464
2019-04-13T08:34:59.840Z,1656
2019-04-13T08:35:39.914Z,2020
2019-04-13T08:36:20.204Z,2400
2019-04-13T08:37:03.115Z,2660
2019-04-13T08:37:52.394Z,2880
2019-04-13T08:38:21.335Z,3072
2019-04-13T08:39:01.720Z,3080
2019-04-13T08:39:42.117Z,3336
2019-04-13T08:40:22.496Z,3368
2019-04-13T08:41:10.665Z,3428
2019-04-13T08:41:43.351Z,3544
2019-04-13T08:42:26.997Z,3612
2019-04-13T08:43:06.104Z,3532
2019-04-13T08:43:46.540Z,3280
2019-04-13T08:44:26.901Z,2396
2019-04-13T08:45:07.344Z,2308
2019-04-13T08:45:47.714Z,2240
2019-04-13T08:46:28.445Z,2216
2019-04-13T08:47:08.587Z,2248
2019-04-13T08:47:48.965Z,2484
2019-04-13T08:48:29.361Z,2648
2019-04-13T08:49:09.766Z,2424
2019-04-13T08:49:50.150Z,2172
2019-04-13T08:50:30.551Z,2004
2019-04-13T08:51:15.064Z,2036
2019-04-13T08:51:51.604Z,2272
2019-04-13T08:52:32.123Z,2652
2019-04-13T08:53:12.458Z,2520
2019-04-13T08:53:52.915Z,2268
2019-04-13T08:54:33.256Z,2188
2019-04-13T08:55:13.677Z,2728
2019-04-13T08:55:54.079Z,2400
2019-04-13T08:56:34.499Z,2376
2019-04-13T08:57:14.898Z,2380
2019-04-13T08:57:56.072Z,2360
2019-04-13T08:58:36.496Z,2436
2019-04-13T08:59:16.130Z,2764
2019-04-13T08:59:56.520Z,2860
2019-04-13T09:00:36.915Z,2644
2019-04-13T09:01:17.378Z,2416
2019-04-13T09:01:57.830Z,2272
2019-04-13T09:02:38.213Z,2312
2019-04-13T09:03:18.768Z,2360
2019-04-13T09:03:59.169Z,2540
2019-04-13T09:04:39.593Z,2736
2019-04-13T09:05:19.971Z,2740
2019-04-13T09:06:00.350Z,2944
2019-04-13T09:06:40.789Z,3136
2019-04-13T09:07:22.834Z,3312
2019-04-13T09:08:03.241Z,3144
2019-04-13T09:08:43.633Z,3572
2019-04-13T09:09:24.076Z,3392
2019-04-13T09:10:05.084Z,3024
2019-04-13T09:10:44.954Z,2840
2019-04-13T09:11:26.678Z,2764
2019-04-13T09:12:07.590Z,2692
2019-04-13T09:12:50.062Z,2548
2019-04-13T09:13:30.054Z,2200
2019-04-13T09:14:11.053Z,2088
2019-04-13T09:14:48.916Z,1848
2019-04-13T09:15:28.732Z,1712
2019-04-13T09:16:08.658Z,1640
2019-04-13T09:16:49.349Z,1896
2019-04-13T09:17:31.665Z,2160
2019-04-13T09:18:09.780Z,2304
2019-04-13T09:18:50.558Z,2316
2019-04-13T09:19:34.787Z,2276
2019-04-13T09:20:11.312Z,2172
2019-04-13T09:20:51.987Z,2144
2019-04-13T09:21:32.207Z,2248
2019-04-13T09:22:12.634Z,2496
2019-04-13T09:22:55.667Z,2860
2019-04-13T09:23:37.285Z,3092
2019-04-13T09:24:19.190Z,3196
2019-04-13T09:24:56.380Z,3184
2019-04-13T09:25:36.789Z,3324
2019-04-13T09:26:17.291Z,2548
2019-04-13T09:26:57.661Z,2328
2019-04-13T09:27:40.229Z,2372
2019-04-13T09:28:18.443Z,2220
2019-04-13T09:28:58.859Z,1544
2019-04-13T09:29:39.240Z,1320
2019-04-13T09:30:21.754Z,1192
2019-04-13T09:31:00.053Z,1108
2019-04-13T09:31:40.441Z,1080
2019-04-13T09:32:20.883Z,1084
2019-04-13T09:33:04.026Z,1092
2019-04-13T09:33:44.145Z,1124
2019-04-13T09:34:32.766Z,1264
2019-04-13T09:35:02.662Z,1436
2019-04-13T09:35:43.046Z,1600
2019-04-13T09:36:23.449Z,1756
2019-04-13T09:37:04.824Z,1868
2019-04-13T09:37:47.640Z,1968
2019-04-13T09:38:26.091Z,2056
2019-04-13T09:39:06.423Z,2160
2019-04-13T09:39:46.850Z,2756
2019-04-13T09:40:28.104Z,2816
2019-04-13T09:41:07.668Z,2828
2019-04-13T09:41:48.051Z,2864
2019-04-13T09:42:28.501Z,2956
2019-04-13T09:43:09.428Z,3136
2019-04-13T09:43:53.488Z,2860
2019-04-13T09:44:31.512Z,2248
2019-04-13T09:45:11.137Z,2116
2019-04-13T09:45:51.487Z,2488
2019-04-13T09:46:31.874Z,2340
2019-04-13T09:47:12.300Z,1980
2019-04-13T09:47:52.755Z,1860
2019-04-13T09:48:33.140Z,1900
2019-04-13T09:49:13.539Z,1948
2019-04-13T09:49:53.883Z,2020
2019-04-13T09:50:36.630Z,2124
2019-04-13T09:51:14.997Z,2280
2019-04-13T09:51:59.840Z,2488
2019-04-13T09:52:37.356Z,2704
2019-04-13T09:53:17.251Z,3000
2019-04-13T09:54:00.670Z,3544
2019-04-13T09:54:43.315Z,3628
2019-04-13T09:55:21.449Z,3704
2019-04-13T09:56:02.632Z,3720
2019-04-13T09:56:42.524Z,3724
2019-04-13T09:57:22.927Z,3628
2019-04-13T09:58:03.346Z,3544
2019-04-13T09:58:43.796Z,3408
2019-04-13T09:59:24.436Z,3020
2019-04-13T10:00:05.469Z,2536
2019-04-13T10:00:45.020Z,2368
2019-04-13T10:01:25.412Z,1940
2019-04-13T10:02:05.852Z,1716
2019-04-13T10:02:46.188Z,1592
2019-04-13T10:03:26.874Z,1520
2019-04-13T10:04:07.244Z,1456
2019-04-13T10:04:50.058Z,1472
2019-04-13T10:05:30.743Z,1568
2019-04-13T10:06:11.309Z,1764
2019-04-13T10:06:51.755Z,1884
2019-04-13T10:07:32.089Z,1832
2019-04-13T10:08:12.466Z,1744
2019-04-13T10:08:55.965Z,1716
2019-04-13T10:09:33.321Z,1788
2019-04-13T10:10:13.740Z,1840
2019-04-13T10:10:56.068Z,1880
2019-04-13T10:11:37.635Z,1852
2019-04-13T10:12:17.174Z,1844
2019-04-13T10:12:57.498Z,1780
2019-04-13T10:13:37.864Z,1996